createdAt,value
2018-02-23T00:04:45.614Z,16.60
2018-02-23T00:09:49.625Z,16.90
2018-02-23T00:14:57.504Z,15.13
2018-02-23T00:20:01.477Z,13.20
2018-02-23T00:25:06.237Z,17.33
2018-02-23T00:30:09.413Z,18.33
2018-02-23T00:35:14.668Z,16.70
2018-02-23T00:40:18.873Z,13.30
2018-02-23T00:45:27.518Z,19.27
2018-02-23T00:50:30.908Z,15.97
2018-02-23T00:55:35.865Z,17.97
2018-02-23T01:00:39.456Z,16.33
2018-02-23T01:05:44.085Z,16.20
2018-02-23T01:10:48.822Z,17.17
2018-02-23T01:15:53.933Z,14.77
2018-02-23T01:20:57.401Z,16.50
2018-02-23T01:26:02.678Z,21.30
2018-02-23T01:31:06.677Z,16.73
2018-02-23T01:36:11.691Z,20.27
2018-02-23T01:41:15.712Z,20.97
2018-02-23T01:46:19.129Z,17.43
2018-02-23T01:51:23.666Z,21.33
2018-02-23T01:56:28.269Z,24.07
2018-02-23T02:01:32.277Z,26.10
2018-02-23T02:06:37.052Z,11.37
2018-02-23T02:11:40.822Z,17.10
2018-02-23T02:16:48.549Z,20.93
2018-02-23T02:21:52.165Z,24.40
2018-02-23T02:26:57.393Z,21.97
2018-02-23T02:32:00.629Z,24.23
2018-02-23T02:37:07.473Z,22.57
2018-02-23T02:42:10.873Z,18.23
2018-02-23T02:47:17.377Z,22.40
2018-02-23T02:52:20.694Z,22.03
2018-02-23T02:57:28.511Z,24.10
2018-02-23T03:02:33.128Z,23.70
2018-02-23T03:07:40.606Z,25.90
2018-02-23T03:12:44.526Z,26.43
2018-02-23T03:17:48.954Z,25.97
2018-02-23T03:22:52.246Z,24.53
2018-02-23T03:27:56.961Z,26.27
2018-02-23T03:33:01.136Z,25.00
2018-02-23T03:38:07.716Z,20.83
2018-02-23T03:43:11.021Z,19.33
2018-02-23T03:48:15.270Z,22.87
2018-02-23T03:53:19.029Z,24.50
2018-02-23T03:58:22.465Z,24.27
2018-02-23T04:03:29.648Z,22.37
2018-02-23T04:08:33.098Z,24.37
2018-02-23T04:13:38.228Z,24.80
2018-02-23T04:18:41.649Z,26.30
2018-02-23T04:23:46.517Z,23.23
2018-02-23T04:28:50.071Z,24.27
2018-02-23T04:33:57.224Z,26.10
2018-02-23T04:39:01.329Z,44.67
2018-02-23T04:44:08.478Z,28.80
2018-02-23T04:49:12.050Z,22.60
2018-02-23T04:54:16.328Z,16.87
2018-02-23T04:59:20.509Z,23.07
2018-02-23T05:04:25.153Z,26.20
2018-02-23T05:09:29.633Z,28.83
2018-02-23T05:14:33.677Z,19.63
2018-02-23T05:19:38.145Z,30.07
2018-02-23T05:24:41.850Z,30.27
2018-02-23T05:29:45.508Z,30.33
2018-02-23T05:34:49.044Z,24.87
2018-02-23T05:39:53.329Z,29.30
2018-02-23T05:45:00.549Z,28.93
2018-02-23T05:50:04.817Z,32.07
2018-02-23T05:55:09.618Z,31.97
2018-02-23T06:00:13.401Z,23.50
2018-02-23T06:05:19.978Z,32.30
2018-02-23T06:10:23.527Z,24.20
2018-02-23T06:15:26.866Z,25.50
2018-02-23T06:20:30.534Z,35.37
2018-02-23T06:25:35.546Z,26.20
2018-02-23T06:30:39.723Z,29.10
2018-02-23T06:35:43.489Z,26.90
2018-02-23T06:40:47.537Z,23.93
2018-02-23T06:45:56.950Z,31.37
2018-02-23T06:51:00.842Z,32.40
2018-02-23T06:56:04.557Z,27.63
2018-02-23T07:01:09.006Z,25.77
2018-02-23T07:06:16.093Z,31.63
2018-02-23T07:11:19.385Z,28.37
2018-02-23T07:16:26.106Z,30.07
2018-02-23T07:21:29.578Z,30.00
2018-02-23T07:26:34.873Z,26.00
2018-02-23T07:31:38.303Z,32.30
2018-02-23T07:36:45.722Z,32.20
2018-02-23T07:41:49.048Z,26.87
2018-02-23T07:46:53.665Z,27.30
2018-02-23T07:51:57.479Z,27.10
2018-02-23T07:57:02.011Z,32.47
2018-02-23T08:02:05.679Z,28.03
2018-02-23T08:07:10.550Z,23.93
2018-02-23T08:12:14.724Z,35.27
2018-02-23T08:17:20.098Z,31.77
2018-02-23T08:22:24.641Z,23.40
2018-02-23T08:27:34.717Z,27.77
2018-02-23T08:32:38.313Z,24.47
2018-02-23T08:37:43.305Z,22.33
2018-02-23T08:42:51.554Z,24.93
2018-02-23T08:47:55.773Z,22.80
2018-02-23T08:53:03.029Z,22.33
2018-02-23T08:58:06.404Z,20.90
2018-02-23T09:03:10.325Z,16.07
2018-02-23T09:08:13.933Z,18.50
2018-02-23T09:13:21.169Z,24.13
2018-02-23T09:18:25.414Z,21.47
2018-02-23T09:23:30.685Z,19.50
2018-02-23T09:28:34.491Z,22.47
2018-02-23T10:36:43.519Z,17.10
2018-02-23T10:41:47.733Z,17.17
2018-02-23T10:46:54.251Z,17.77
2018-02-23T10:51:58.759Z,15.07
2018-02-23T10:57:04.411Z,16.77
2018-02-23T11:02:10.764Z,20.17
2018-02-23T11:07:16.346Z,19.60
2018-02-23T11:12:22.519Z,17.30
2018-02-23T11:17:27.017Z,16.67
2018-02-23T11:22:35.414Z,17.47
2018-02-23T11:27:42.064Z,17.37
2018-02-23T11:32:49.455Z,16.53
2018-02-23T11:37:54.898Z,19.20
2018-02-23T11:43:01.708Z,26.33
2018-02-23T11:48:08.237Z,16.07
2018-02-23T11:53:13.900Z,14.83
2018-02-23T11:58:18.892Z,15.00
2018-02-23T12:03:51.400Z,14.07
2018-02-23T12:08:55.579Z,14.40
2018-02-23T12:14:04.583Z,13.00
2018-02-23T12:19:08.887Z,12.93
2018-02-23T12:24:20.042Z,10.13
2018-02-23T12:29:25.591Z,26.13
2018-02-23T12:34:31.747Z,16.83
2018-02-23T12:39:38.649Z,18.33
2018-02-23T12:44:45.968Z,11.47
2018-02-23T12:49:51.264Z,13.83
2018-02-23T12:55:00.067Z,11.57
2018-02-23T13:00:04.695Z,12.80
2018-02-23T13:05:12.572Z,16.30
2018-02-23T13:10:17.067Z,17.90
2018-02-23T13:15:24.912Z,20.90
2018-02-23T13:20:30.673Z,19.93
2018-02-23T13:25:35.929Z,19.27
2018-02-23T13:30:41.360Z,21.23
2018-02-23T13:35:46.456Z,19.30
2018-02-23T13:40:56.773Z,34.10
2018-02-23T13:46:07.196Z,23.97
2018-02-23T13:51:11.702Z,18.67
2018-02-23T13:56:17.323Z,18.97
2018-02-23T14:01:21.147Z,39.13
2018-02-23T14:06:40.839Z,40.60
2018-02-23T14:11:50.140Z,11.77
2018-02-23T14:17:00.429Z,29.30
2018-02-23T14:22:07.901Z,23.00
2018-02-23T14:27:11.201Z,13.03
2018-02-23T14:32:16.063Z,21.10
2018-02-23T14:37:20.213Z,16.53
2018-02-23T14:42:24.910Z,24.90
2018-02-23T14:47:28.486Z,25.07
2018-02-23T14:52:33.266Z,20.30
2018-02-23T14:57:36.951Z,20.77
2018-02-23T15:02:40.762Z,14.20
2018-02-23T15:07:44.152Z,19.50
2018-02-23T15:12:48.071Z,17.87
2018-02-23T15:17:52.849Z,16.83
2018-02-23T15:23:00.517Z,17.27
2018-02-23T15:28:03.829Z,16.23
2018-02-23T15:33:08.193Z,17.83
2018-02-23T15:38:12.352Z,19.83
2018-02-23T15:43:19.434Z,21.77
2018-02-23T15:53:52.898Z,27.83
2018-02-23T15:58:56.318Z,27.17
2018-02-23T16:04:02.886Z,28.57
2018-02-23T16:09:06.277Z,19.60
2018-02-23T16:14:09.798Z,22.37
2018-02-23T16:19:14.206Z,21.27
2018-02-23T16:24:17.878Z,43.07
2018-02-23T16:29:22.795Z,74.63
2018-02-23T16:34:26.611Z,57.43
2018-02-23T16:39:30.855Z,99.90
2018-02-23T16:44:37.986Z,65.93
2018-02-23T16:49:42.024Z,61.20
2018-02-23T16:54:45.777Z,35.73
2018-02-23T16:59:49.091Z,43.80
2018-02-23T17:04:52.774Z,45.13
2018-02-23T17:09:56.165Z,35.17
2018-02-23T17:15:03.007Z,92.30
2018-02-23T17:20:07.150Z,75.93
2018-02-23T17:25:14.843Z,39.43
2018-02-23T17:30:18.371Z,53.23
2018-02-23T17:35:21.900Z,22.43
2018-02-23T17:40:27.218Z,29.17
2018-02-23T17:45:31.095Z,33.00
2018-02-23T17:50:35.238Z,34.97
2018-02-23T17:55:38.785Z,27.13
2018-02-23T18:00:43.034Z,46.07
2018-02-23T18:05:49.968Z,37.80
2018-02-23T18:10:54.255Z,23.17
2018-02-23T18:16:02.251Z,27.73
2018-02-23T18:21:05.884Z,27.43
2018-02-23T18:26:10.872Z,24.27
2018-02-23T18:31:21.109Z,25.90
2018-02-23T18:36:25.299Z,25.70
2018-02-23T18:41:29.458Z,44.30
2018-02-23T18:46:32.752Z,30.00
2018-02-23T18:51:39.649Z,31.40
2018-02-23T18:56:44.093Z,27.13
2018-02-23T19:01:47.671Z,31.60
2018-02-23T19:06:52.734Z,27.53
2018-02-23T19:11:57.708Z,23.27
2018-02-23T19:17:02.589Z,20.80
2018-02-23T19:22:08.998Z,24.40
2018-02-23T19:27:13.755Z,21.50
2018-02-23T19:32:17.623Z,18.73
2018-02-23T19:37:21.548Z,19.47
2018-02-23T19:42:26.202Z,20.00
2018-02-23T19:47:30.443Z,20.90
2018-02-23T19:52:33.934Z,19.03
2018-02-23T19:57:37.308Z,17.10
2018-02-23T20:02:40.845Z,22.03
2018-02-23T20:07:44.682Z,17.57
2018-02-23T20:12:48.455Z,17.50
2018-02-23T20:17:52.784Z,21.33
2018-02-23T20:22:57.639Z,21.00
2018-02-23T20:28:01.062Z,21.43
2018-02-23T20:33:04.841Z,26.47
2018-02-23T20:38:08.838Z,21.23
2018-02-23T20:43:13.121Z,21.03
2018-02-23T20:48:17.282Z,28.27
2018-02-23T20:53:24.431Z,35.40
2018-02-23T20:58:28.314Z,29.83
2018-02-23T21:03:33.485Z,22.27
2018-02-23T21:08:37.551Z,25.63
2018-02-23T21:13:44.737Z,19.30
2018-02-23T21:18:48.176Z,22.07
2018-02-23T21:23:55.019Z,48.23
2018-02-23T21:28:59.264Z,22.10
2018-02-23T21:34:05.962Z,20.63
2018-02-23T21:39:09.436Z,20.10
2018-02-23T21:44:14.365Z,17.80
2018-02-23T21:49:18.514Z,16.47
2018-02-23T21:54:25.658Z,20.47
2018-02-23T21:59:29.754Z,25.60
2018-02-23T22:04:33.599Z,19.67
2018-02-23T22:09:37.258Z,19.80
2018-02-23T22:14:43.734Z,18.50
2018-02-23T22:19:47.266Z,19.63
2018-02-23T22:24:50.952Z,20.27
2018-02-23T22:29:54.813Z,17.23
2018-02-23T22:35:01.750Z,13.73
2018-02-23T22:40:05.166Z,14.17
2018-02-23T22:45:09.998Z,16.70
2018-02-23T22:50:13.486Z,19.27
2018-02-23T22:55:16.860Z,20.23
2018-02-23T23:00:20.415Z,17.30
2018-02-23T23:05:24.734Z,11.83
2018-02-23T23:10:29.705Z,9.10
2018-02-23T23:15:33.066Z,10.73
2018-02-23T23:20:37.570Z,12.13
2018-02-23T23:25:40.966Z,14.43
2018-02-23T23:30:46.398Z,12.50
2018-02-23T23:35:50.561Z,14.53
2018-02-23T23:40:54.904Z,13.57
2018-02-23T23:45:58.455Z,15.00
2018-02-23T23:51:03.890Z,13.33
2018-02-23T23:56:08.157Z,13.77
